To NAV CANADA Home Page Login to a new session Search on AWWS site Feedback and Comments Disclaimer Vers la page française équivalente Tips FAQ What's new on the site To the Forecasts and Observations / NOTAM section To "File a Flight Plan" website Publications and other links Update of the User's profile FIC Telephone Numbers My Weather Data Folder Route Weather Data Regional Weather Data Local Weather Data To the Forecasts and Observations / NOTAM section
Request Generated 07/04/2015 at 10:06:53 UTC . Weather information available at that time is displayed.

METAR/TAF

SASKATOON/JOHN G. DIEFENBAKER INTL/SK    

METAR CYXE 041000Z 33010KT 15SM BKN140 BKN230 17/14 A2976 RMK AC5CI2
SLP075 DENSITY ALT 2400FT=
METAR CYXE 040900Z 34007KT 15SM SCT100 OVC280 17/14 A2974 RMK AC3CI5
SLP068 DENSITY ALT 2400FT=
METAR CYXE 040800Z 01005KT 15SM BKN100 OVC230 18/14 A2974 RMK AC5CI3
SLP068 DENSITY ALT 2500FT=

TAF CYXE 040543Z 0406/0506 08010KT P6SM SCT040 BKN100 BKN250 TEMPO
0406/0408 VRB15G25KT 2SM TSRA OVC040CB
FM040800 30006KT P6SM SCT040 BKN100 TEMPO 0408/0412 P6SM -SHRA
BKN040 BKN100 PROB30 0408/0412 VRB15G25KT 4SM TSRA OVC040CB
FM041200 35015G25KT P6SM BKN080 BKN160
BECMG 0413/0415 36012KT
FM041700 30012KT P6SM SCT100
RMK NXT FCST BY 041200Z=
Your time UTC time
Weather data provided by Environment Canada and NAV CANADA